createdAt,value
2023-02-15T00:01:49.899Z,34.93
2023-02-15T00:04:20.343Z,33.27
2023-02-15T00:06:46.988Z,31.77
2023-02-15T00:09:14.258Z,32.07
2023-02-15T00:11:41.126Z,32.03
2023-02-15T00:14:10.704Z,32.43
2023-02-15T00:16:38.769Z,31.87
2023-02-15T00:19:06.120Z,33.73
2023-02-15T00:21:34.012Z,31.57
2023-02-15T00:24:02.597Z,34.73
2023-02-15T00:26:30.225Z,32.60
2023-02-15T00:28:59.482Z,33.30
2023-02-15T00:31:28.700Z,32.10
2023-02-15T00:33:56.223Z,31.27
2023-02-15T00:36:22.879Z,32.97
2023-02-15T00:38:49.648Z,34.03
2023-02-15T00:41:17.196Z,32.53
2023-02-15T00:43:43.837Z,33.97
2023-02-15T00:46:10.684Z,31.63
2023-02-15T00:48:39.956Z,33.40
2023-02-15T00:51:06.957Z,31.37
2023-02-15T00:53:33.828Z,32.93
2023-02-15T00:56:01.021Z,32.43
2023-02-15T00:58:27.889Z,34.40
2023-02-15T01:00:54.638Z,32.43
2023-02-15T01:03:23.804Z,31.93
2023-02-15T01:05:50.669Z,33.77
2023-02-15T01:08:17.489Z,33.20
2023-02-15T01:10:46.770Z,31.07
2023-02-15T01:13:14.680Z,30.97
2023-02-15T01:15:43.973Z,31.07
2023-02-15T01:18:11.692Z,29.27
2023-02-15T01:20:42.030Z,32.73
2023-02-15T01:23:09.756Z,30.30
2023-02-15T01:25:37.375Z,28.80
2023-02-15T01:28:04.493Z,27.47
2023-02-15T01:30:33.427Z,29.00
2023-02-15T01:33:01.651Z,27.97
2023-02-15T01:35:31.242Z,28.37
2023-02-15T01:37:57.902Z,27.97
2023-02-15T01:40:26.134Z,31.50
2023-02-15T01:42:54.323Z,27.57
2023-02-15T01:45:32.191Z,27.23
2023-02-15T01:48:07.205Z,27.47
2023-02-15T01:50:41.938Z,33.17
2023-02-15T01:53:33.289Z,28.40
2023-02-15T01:56:05.103Z,26.63
2023-02-15T01:58:34.777Z,29.27
2023-02-15T02:01:04.899Z,27.70
2023-02-15T02:03:50.511Z,27.20
2023-02-15T02:06:18.376Z,27.27
2023-02-15T02:08:45.627Z,26.33
2023-02-15T02:11:13.882Z,28.00
2023-02-15T02:13:42.624Z,29.87
2023-02-15T02:16:25.795Z,26.67
2023-02-15T02:19:20.977Z,28.67
2023-02-15T02:22:05.858Z,27.10
2023-02-15T02:24:48.258Z,26.07
2023-02-15T02:27:31.132Z,27.80
2023-02-15T02:30:25.355Z,26.63
2023-02-15T02:33:14.092Z,25.57
2023-02-15T02:36:03.843Z,25.90
2023-02-15T02:38:45.236Z,26.83
2023-02-15T02:41:23.675Z,24.77
2023-02-15T02:44:13.267Z,24.07
2023-02-15T02:46:39.922Z,23.97
2023-02-15T02:49:06.671Z,26.63
2023-02-15T02:51:33.451Z,24.47
2023-02-15T02:54:04.467Z,23.73
2023-02-15T02:56:48.412Z,26.37
2023-02-15T02:59:21.630Z,23.97
2023-02-15T03:01:54.235Z,25.50
2023-02-15T03:04:29.644Z,24.37
2023-02-15T03:07:03.747Z,24.97
2023-02-15T03:09:43.823Z,25.27
2023-02-15T03:12:28.288Z,23.70
2023-02-15T03:15:06.007Z,23.83
2023-02-15T03:17:34.802Z,27.73
2023-02-15T03:20:08.226Z,25.67
2023-02-15T03:22:40.424Z,22.40
2023-02-15T03:25:20.579Z,26.50
2023-02-15T03:27:52.191Z,23.17
2023-02-15T03:30:22.803Z,24.60
2023-02-15T03:32:51.836Z,25.07
2023-02-15T03:35:24.063Z,22.97
2023-02-15T03:38:02.598Z,22.83
2023-02-15T03:40:51.474Z,23.67
2023-02-15T03:43:39.879Z,21.37
2023-02-15T03:46:21.628Z,21.83
2023-02-15T03:48:54.185Z,22.40
2023-02-15T03:51:37.216Z,24.13
2023-02-15T03:54:44.881Z,20.53
2023-02-15T03:57:41.484Z,21.73
2023-02-15T04:00:41.076Z,20.13
2023-02-15T04:03:20.955Z,22.47
2023-02-15T04:05:47.641Z,21.93
2023-02-15T04:08:14.501Z,23.00
2023-02-15T04:10:53.212Z,21.27
2023-02-15T04:13:21.226Z,21.50
2023-02-15T04:16:07.046Z,20.00
2023-02-15T04:18:58.020Z,21.50
2023-02-15T04:21:45.011Z,23.07
2023-02-15T04:24:31.325Z,22.13
2023-02-15T04:26:58.999Z,21.20
2023-02-15T04:29:26.510Z,23.83
2023-02-15T04:31:55.060Z,23.07
2023-02-15T04:34:22.131Z,26.03
2023-02-15T04:36:48.844Z,21.17
2023-02-15T04:39:16.324Z,23.77
2023-02-15T04:41:43.475Z,20.27
2023-02-15T04:44:10.540Z,21.73
2023-02-15T04:46:37.923Z,21.77
2023-02-15T04:49:05.000Z,23.43
2023-02-15T04:51:31.744Z,21.67
2023-02-15T04:53:58.420Z,21.07
2023-02-15T04:56:25.230Z,20.70
2023-02-15T04:58:51.953Z,20.60
2023-02-15T05:01:18.830Z,22.10
2023-02-15T05:03:45.532Z,21.63
2023-02-15T05:06:12.220Z,21.67
2023-02-15T05:08:38.845Z,20.07
2023-02-15T05:11:05.492Z,20.53
2023-02-15T05:13:32.192Z,22.73
2023-02-15T05:15:58.949Z,24.13
2023-02-15T05:18:25.810Z,22.63
2023-02-15T05:20:52.555Z,25.37
2023-02-15T05:23:19.285Z,22.63
2023-02-15T05:26:08.785Z,22.50
2023-02-15T05:28:36.809Z,22.57
2023-02-15T05:31:08.445Z,21.87
2023-02-15T05:33:35.364Z,22.23
2023-02-15T05:36:03.337Z,24.90
2023-02-15T05:38:30.467Z,24.67
2023-02-15T05:40:57.724Z,22.37
2023-02-15T05:43:25.286Z,24.83
2023-02-15T05:45:53.903Z,26.73
2023-02-15T05:48:23.224Z,23.17
2023-02-15T05:51:04.768Z,23.07
2023-02-15T05:53:33.770Z,22.10
2023-02-15T05:56:01.624Z,24.50
2023-02-15T05:58:37.766Z,23.83
2023-02-15T06:01:18.427Z,23.27
2023-02-15T06:03:46.527Z,23.50
2023-02-15T06:06:13.527Z,23.23
2023-02-15T06:08:40.373Z,25.93
2023-02-15T06:11:07.853Z,23.10
2023-02-15T06:13:38.330Z,22.47
2023-02-15T06:16:06.589Z,24.60
2023-02-15T06:18:33.602Z,23.53
2023-02-15T06:21:00.491Z,24.60
2023-02-15T06:23:27.196Z,23.50
2023-02-15T06:25:54.260Z,22.87
2023-02-15T06:28:21.094Z,27.60
2023-02-15T06:30:47.957Z,24.00
2023-02-15T06:33:14.726Z,25.73
2023-02-15T06:35:41.489Z,21.80
2023-02-15T06:38:08.661Z,26.77
2023-02-15T06:40:35.339Z,21.87
2023-02-15T06:43:01.993Z,20.13
2023-02-15T06:45:28.760Z,22.20
2023-02-15T06:47:55.433Z,22.67
2023-02-15T06:50:22.274Z,20.77
2023-02-15T06:52:49.018Z,23.43
2023-02-15T06:55:15.810Z,21.77
2023-02-15T06:57:42.555Z,28.03
2023-02-15T07:00:09.876Z,21.00
2023-02-15T07:02:36.520Z,21.50
2023-02-15T07:05:05.102Z,22.07
2023-02-15T07:07:31.767Z,21.20
2023-02-15T07:09:58.430Z,23.27
2023-02-15T07:12:43.531Z,21.87
2023-02-15T07:15:16.150Z,24.33
2023-02-15T07:17:43.634Z,22.63
2023-02-15T07:20:12.053Z,22.50
2023-02-15T07:22:39.110Z,24.40
2023-02-15T07:25:08.220Z,23.63
2023-02-15T07:27:35.186Z,21.53
2023-02-15T07:30:02.259Z,20.73
2023-02-15T07:32:33.117Z,25.13
2023-02-15T07:35:00.815Z,23.33
2023-02-15T07:37:28.667Z,24.50
2023-02-15T07:39:55.367Z,20.53
2023-02-15T07:42:22.989Z,20.70
2023-02-15T07:44:50.010Z,23.00
2023-02-15T07:47:16.745Z,19.47
2023-02-15T07:49:43.431Z,22.60
2023-02-15T07:52:10.219Z,19.10
2023-02-15T07:54:36.849Z,20.73
2023-02-15T07:57:03.596Z,20.30
2023-02-15T07:59:30.269Z,19.80
2023-02-15T08:01:58.105Z,21.53
2023-02-15T08:04:25.104Z,20.43
2023-02-15T08:06:55.099Z,21.03
2023-02-15T08:09:22.634Z,21.40
2023-02-15T08:11:49.528Z,19.47
2023-02-15T08:14:21.335Z,21.40
2023-02-15T08:16:48.241Z,19.57
2023-02-15T08:19:25.558Z,20.93
2023-02-15T08:21:54.821Z,19.43
2023-02-15T08:24:23.892Z,19.73
2023-02-15T08:26:51.756Z,19.10
2023-02-15T08:29:21.071Z,20.37
2023-02-15T08:31:48.796Z,22.20
2023-02-15T08:34:18.570Z,20.17
2023-02-15T08:36:48.618Z,20.37
2023-02-15T08:39:16.817Z,20.93
2023-02-15T08:41:46.341Z,19.50
2023-02-15T08:44:13.679Z,20.03
2023-02-15T08:46:42.922Z,20.20
2023-02-15T08:49:11.096Z,19.30
2023-02-15T08:51:39.568Z,20.17
2023-02-15T08:54:10.276Z,20.37
2023-02-15T08:56:39.233Z,20.23
2023-02-15T08:59:07.693Z,20.97
2023-02-15T09:01:35.857Z,19.30
2023-02-15T09:04:09.589Z,20.83
2023-02-15T09:06:40.659Z,19.77
2023-02-15T09:09:08.682Z,19.57
2023-02-15T09:11:38.666Z,19.97
2023-02-15T09:14:10.006Z,19.53
2023-02-15T09:16:38.639Z,20.20
2023-02-15T09:19:06.326Z,19.07
2023-02-15T09:21:36.013Z,18.90
2023-02-15T09:24:08.969Z,19.07
2023-02-15T09:26:38.248Z,18.93
2023-02-15T09:29:05.072Z,17.90
2023-02-15T09:31:45.218Z,16.87
2023-02-15T09:34:14.332Z,17.67
2023-02-15T09:36:42.182Z,16.27
2023-02-15T09:39:13.629Z,16.30
2023-02-15T09:41:52.678Z,17.17
2023-02-15T09:44:40.673Z,14.80
2023-02-15T09:47:18.934Z,14.93
2023-02-15T09:50:20.862Z,16.97
2023-02-15T09:53:00.121Z,17.53
2023-02-15T09:55:48.724Z,17.70
2023-02-15T09:58:33.410Z,17.03
2023-02-15T10:01:22.687Z,16.97
2023-02-15T10:04:23.555Z,16.10
2023-02-15T10:07:05.267Z,17.23
2023-02-15T10:09:32.255Z,15.63
2023-02-15T10:12:30.201Z,16.17
2023-02-15T10:14:59.554Z,15.53
2023-02-15T10:17:45.233Z,15.43
2023-02-15T10:20:37.188Z,15.75
2023-02-15T10:23:12.482Z,14.45
2023-02-15T10:25:58.917Z,17.27
2023-02-15T10:28:40.846Z,18.05
2023-02-15T10:31:22.106Z,16.58
2023-02-15T10:33:56.230Z,17.13
2023-02-15T10:36:55.274Z,17.13
2023-02-15T10:39:43.712Z,16.95
2023-02-15T10:42:53.097Z,16.30
2023-02-15T10:45:41.152Z,16.38
2023-02-15T10:48:23.214Z,16.20
2023-02-15T10:50:53.652Z,15.75
2023-02-15T10:53:27.354Z,16.48
2023-02-15T10:56:08.191Z,17.23
2023-02-15T10:58:46.823Z,16.63
2023-02-15T11:01:23.599Z,15.77
2023-02-15T11:04:08.885Z,16.02
2023-02-15T11:06:40.629Z,15.38
2023-02-15T11:09:13.967Z,15.38
2023-02-15T11:11:44.650Z,14.98
2023-02-15T11:14:14.099Z,15.38
2023-02-15T11:16:47.365Z,14.82
2023-02-15T11:19:17.050Z,14.80
2023-02-15T11:21:50.774Z,14.30
2023-02-15T11:24:23.478Z,15.13
2023-02-15T11:27:13.464Z,12.75
2023-02-15T11:29:49.948Z,15.45
2023-02-15T11:32:30.712Z,14.63
2023-02-15T11:35:06.349Z,15.23
2023-02-15T11:37:54.551Z,14.25
2023-02-15T11:40:25.753Z,14.30
2023-02-15T11:42:57.003Z,14.63
2023-02-15T11:45:32.387Z,14.50
2023-02-15T11:48:00.382Z,14.60
2023-02-15T11:50:31.695Z,14.63
2023-02-15T11:53:04.690Z,15.63
2023-02-15T11:55:31.982Z,15.07
2023-02-15T11:58:05.680Z,15.48
2023-02-15T12:00:40.290Z,15.60
2023-02-15T12:03:21.417Z,15.80
2023-02-15T12:05:54.407Z,15.73
2023-02-15T12:08:22.654Z,14.77
2023-02-15T12:11:03.997Z,15.13
2023-02-15T12:13:31.138Z,14.68
2023-02-15T12:16:00.353Z,15.35
2023-02-15T12:18:45.216Z,15.02
2023-02-15T12:21:29.395Z,16.30
2023-02-15T12:24:05.048Z,15.73
2023-02-15T12:26:35.471Z,15.85
2023-02-15T12:29:13.652Z,16.08
2023-02-15T12:31:44.588Z,15.68
2023-02-15T12:34:40.542Z,15.77
2023-02-15T12:37:29.406Z,16.85
2023-02-15T12:39:58.774Z,16.50
2023-02-15T12:42:27.066Z,16.98
2023-02-15T12:44:53.835Z,15.52
2023-02-15T12:47:21.526Z,17.70
2023-02-15T12:50:12.609Z,17.92
2023-02-15T12:52:40.162Z,16.77
2023-02-15T12:55:33.055Z,17.30
2023-02-15T12:58:21.487Z,18.97
2023-02-15T13:00:48.440Z,16.17
2023-02-15T13:03:24.924Z,16.83
2023-02-15T13:05:57.675Z,16.97
2023-02-15T13:08:53.806Z,17.47
2023-02-15T13:11:25.749Z,18.13
2023-02-15T13:13:56.902Z,20.20
2023-02-15T13:16:36.427Z,17.67
2023-02-15T13:19:11.315Z,16.40
2023-02-15T13:21:41.104Z,16.67
2023-02-15T13:24:25.169Z,15.27
2023-02-15T13:27:03.513Z,17.00
2023-02-15T13:29:40.815Z,15.50
2023-02-15T13:32:26.896Z,17.50
2023-02-15T13:34:57.981Z,16.50
2023-02-15T13:37:48.117Z,19.53
2023-02-15T13:40:33.830Z,18.83
2023-02-15T13:43:03.135Z,19.53
2023-02-15T13:45:54.401Z,21.63
2023-02-15T13:48:50.849Z,20.23
2023-02-15T13:51:39.006Z,21.50
2023-02-15T13:54:30.360Z,22.80
2023-02-15T13:57:15.751Z,21.00
2023-02-15T14:00:05.630Z,19.00
2023-02-15T14:02:55.317Z,20.50
2023-02-15T14:05:23.587Z,19.47
2023-02-15T14:08:09.800Z,20.80
2023-02-15T14:11:09.342Z,19.70
2023-02-15T14:14:11.526Z,21.93
2023-02-15T14:17:16.155Z,17.40
2023-02-15T14:19:52.741Z,19.97
2023-02-15T14:22:25.997Z,18.03
2023-02-15T14:25:06.367Z,20.73
2023-02-15T14:27:53.874Z,17.73
2023-02-15T14:30:27.602Z,17.47
2023-02-15T14:33:00.680Z,18.93
2023-02-15T14:35:30.162Z,22.00
2023-02-15T14:38:13.055Z,19.33
2023-02-15T14:41:05.021Z,17.37
2023-02-15T14:43:57.069Z,16.47
2023-02-15T14:46:37.604Z,18.27
2023-02-15T14:49:15.098Z,16.40
2023-02-15T14:51:44.808Z,17.30
2023-02-15T14:54:18.281Z,16.70
2023-02-15T14:56:46.037Z,18.30
2023-02-15T14:59:12.651Z,16.80
2023-02-15T15:01:40.719Z,17.57
2023-02-15T15:04:12.758Z,14.87
2023-02-15T15:06:43.168Z,16.63
2023-02-15T15:09:43.181Z,15.43
2023-02-15T15:12:21.823Z,16.80
2023-02-15T15:14:51.723Z,17.07
2023-02-15T15:17:33.508Z,19.60
2023-02-15T15:20:08.352Z,16.37
2023-02-15T15:22:35.929Z,17.13
2023-02-15T15:25:05.698Z,18.30
2023-02-15T15:27:55.052Z,19.53
2023-02-15T15:30:21.872Z,19.57
2023-02-15T15:32:54.689Z,18.07
2023-02-15T15:35:33.389Z,18.90
2023-02-15T15:38:22.380Z,16.80
2023-02-15T15:41:16.190Z,18.97
2023-02-15T15:44:01.266Z,18.60
2023-02-15T15:46:42.954Z,17.50
2023-02-15T15:49:18.809Z,16.30
2023-02-15T15:51:46.897Z,18.07
2023-02-15T15:54:16.485Z,19.37
2023-02-15T15:56:48.059Z,16.37
2023-02-15T15:59:21.130Z,17.57
2023-02-15T16:01:48.945Z,19.27
2023-02-15T16:04:26.311Z,18.40
2023-02-15T16:06:53.441Z,20.70
2023-02-15T16:09:21.616Z,18.20
2023-02-15T16:11:51.509Z,17.80
2023-02-15T16:14:32.238Z,18.87
2023-02-15T16:17:02.002Z,16.53
2023-02-15T16:19:33.406Z,18.07
2023-02-15T16:22:02.020Z,18.20
2023-02-15T16:24:47.062Z,16.47
2023-02-15T16:27:44.545Z,17.63
2023-02-15T16:30:39.455Z,20.10
2023-02-15T16:33:15.601Z,22.23
2023-02-15T16:35:57.210Z,18.13
2023-02-15T16:38:48.358Z,19.57
2023-02-15T16:41:18.367Z,17.70
2023-02-15T16:43:48.497Z,20.40
2023-02-15T16:46:29.507Z,18.47
2023-02-15T16:49:00.033Z,18.87
2023-02-15T16:51:29.505Z,18.47
2023-02-15T16:53:58.535Z,19.83
2023-02-15T16:56:29.373Z,19.37
2023-02-15T16:58:57.473Z,21.47
2023-02-15T17:01:27.239Z,23.13
2023-02-15T17:04:13.308Z,24.13
2023-02-15T17:06:40.027Z,25.60
2023-02-15T17:09:19.260Z,26.43
2023-02-15T17:11:46.169Z,23.57
2023-02-15T17:14:18.946Z,26.23
2023-02-15T17:16:50.687Z,20.90
2023-02-15T17:19:25.742Z,26.40
2023-02-15T17:21:56.624Z,27.83
2023-02-15T17:24:33.387Z,36.57
2023-02-15T17:27:06.361Z,27.63
2023-02-15T17:29:33.770Z,34.97
2023-02-15T17:32:02.727Z,35.57
2023-02-15T17:34:51.322Z,30.97
2023-02-15T17:37:46.625Z,34.63
2023-02-15T17:40:19.195Z,30.83
2023-02-15T17:42:45.919Z,28.13
2023-02-15T17:45:15.099Z,22.70
2023-02-15T17:47:42.550Z,23.67
2023-02-15T17:50:19.490Z,23.80
2023-02-15T17:52:46.253Z,22.90
2023-02-15T17:55:37.756Z,24.13
2023-02-15T17:58:12.925Z,32.97
2023-02-15T18:01:02.438Z,35.80
2023-02-15T18:03:58.751Z,28.77
2023-02-15T18:06:44.550Z,31.87
2023-02-15T18:09:32.284Z,28.03
2023-02-15T18:11:59.036Z,28.10
2023-02-15T18:14:26.462Z,28.20
2023-02-15T18:16:54.744Z,28.70
2023-02-15T18:19:24.305Z,29.83
2023-02-15T18:21:52.829Z,26.63
2023-02-15T18:24:24.193Z,25.67
2023-02-15T18:26:51.990Z,26.93
2023-02-15T18:29:18.932Z,26.20
2023-02-15T18:31:51.326Z,27.53
2023-02-15T18:34:24.033Z,28.07
2023-02-15T18:36:51.772Z,25.57
2023-02-15T18:39:36.317Z,26.63
2023-02-15T18:42:04.848Z,24.93
2023-02-15T18:44:31.658Z,28.93
2023-02-15T18:46:58.272Z,29.30
2023-02-15T18:49:24.970Z,31.73
2023-02-15T18:51:53.131Z,30.47
2023-02-15T18:54:22.846Z,31.70
2023-02-15T18:56:55.471Z,28.00
2023-02-15T18:59:24.591Z,30.03
2023-02-15T19:01:52.301Z,32.03
2023-02-15T19:04:18.987Z,34.70
2023-02-15T19:06:49.059Z,30.43
2023-02-15T19:09:19.902Z,37.77
2023-02-15T19:11:51.736Z,47.93
2023-02-15T19:14:32.540Z,44.47
2023-02-15T19:17:00.606Z,35.43
2023-02-15T19:19:27.933Z,37.47
2023-02-15T19:21:55.394Z,47.83
2023-02-15T19:24:33.576Z,38.37
2023-02-15T19:27:00.395Z,27.47
2023-02-15T19:29:30.311Z,28.87
2023-02-15T19:31:58.102Z,38.53
2023-02-15T19:34:24.991Z,47.13
2023-02-15T19:36:54.792Z,40.50
2023-02-15T19:39:26.111Z,42.03
2023-02-15T19:41:53.232Z,42.87
2023-02-15T19:44:20.626Z,37.90
2023-02-15T19:46:47.417Z,33.90
2023-02-15T19:49:14.078Z,32.00
2023-02-15T19:51:41.146Z,35.07
2023-02-15T19:54:31.532Z,37.57
2023-02-15T19:56:58.303Z,32.27
2023-02-15T19:59:30.938Z,31.90
2023-02-15T20:01:58.212Z,32.63
2023-02-15T20:04:26.022Z,32.93
2023-02-15T20:06:55.774Z,30.17
2023-02-15T20:09:26.505Z,32.03
2023-02-15T20:11:53.728Z,34.10
2023-02-15T20:14:21.033Z,37.87
2023-02-15T20:16:47.876Z,30.10
2023-02-15T20:19:14.608Z,32.63
2023-02-15T20:21:43.818Z,26.93
2023-02-15T20:24:19.290Z,28.57
2023-02-15T20:26:46.333Z,27.90
2023-02-15T20:29:15.200Z,26.57
2023-02-15T20:31:43.096Z,26.93
2023-02-15T20:34:10.655Z,27.53
2023-02-15T20:36:38.747Z,25.07
2023-02-15T20:39:16.585Z,29.97
2023-02-15T20:41:47.730Z,29.37
2023-02-15T20:44:20.684Z,28.00
2023-02-15T20:46:49.199Z,28.33
2023-02-15T20:49:16.161Z,31.63
2023-02-15T20:51:44.368Z,28.80
2023-02-15T20:54:17.774Z,28.50
2023-02-15T20:56:45.763Z,30.30
2023-02-15T20:59:24.740Z,27.33
2023-02-15T21:01:55.428Z,32.40
2023-02-15T21:04:27.233Z,29.37
2023-02-15T21:06:53.958Z,29.87
2023-02-15T21:09:20.571Z,29.00
2023-02-15T21:11:50.252Z,29.90
2023-02-15T21:14:19.487Z,30.57
2023-02-15T21:16:48.360Z,28.67
2023-02-15T21:19:23.586Z,26.73
2023-02-15T21:21:53.225Z,27.00
2023-02-15T21:24:29.036Z,33.70
2023-02-15T21:26:58.273Z,32.50
2023-02-15T21:29:28.013Z,31.00
2023-02-15T21:31:55.200Z,34.80
2023-02-15T21:34:22.200Z,31.50
2023-02-15T21:36:50.594Z,34.93
2023-02-15T21:39:25.913Z,34.63
2023-02-15T21:42:13.207Z,35.33
2023-02-15T21:44:59.194Z,33.60
2023-02-15T21:47:49.030Z,33.03
2023-02-15T21:50:42.645Z,35.23
2023-02-15T21:53:21.172Z,33.07
2023-02-15T21:55:48.667Z,32.37
2023-02-15T21:58:21.070Z,32.13
2023-02-15T22:00:48.389Z,41.93
2023-02-15T22:03:15.206Z,33.23
2023-02-15T22:05:41.871Z,37.33
2023-02-15T22:08:13.317Z,35.07
2023-02-15T22:10:41.237Z,34.70
2023-02-15T22:13:17.235Z,34.50
2023-02-15T22:15:47.084Z,32.63
2023-02-15T22:18:33.849Z,32.77
2023-02-15T22:21:01.991Z,35.03
2023-02-15T22:23:29.080Z,31.30
2023-02-15T22:26:05.162Z,35.70
2023-02-15T22:28:34.594Z,33.40
2023-02-15T22:31:01.866Z,31.17
2023-02-15T22:33:31.643Z,34.97
2023-02-15T22:35:59.249Z,33.13
2023-02-15T22:38:26.248Z,29.80
2023-02-15T22:40:56.815Z,27.90
2023-02-15T22:43:29.413Z,28.37
2023-02-15T22:46:01.825Z,30.00
2023-02-15T22:48:28.755Z,27.53
2023-02-15T22:50:55.412Z,28.07
2023-02-15T22:53:22.650Z,28.07
2023-02-15T22:55:49.891Z,26.27
2023-02-15T22:58:20.617Z,26.97
2023-02-15T23:00:47.447Z,26.40
2023-02-15T23:03:16.833Z,28.10
2023-02-15T23:05:43.854Z,28.23
2023-02-15T23:08:11.385Z,28.20
2023-02-15T23:10:39.319Z,27.20
2023-02-15T23:13:25.970Z,29.87
2023-02-15T23:15:58.727Z,27.63
2023-02-15T23:18:29.503Z,31.10
2023-02-15T23:21:10.106Z,26.10
2023-02-15T23:23:39.981Z,29.67
2023-02-15T23:26:22.905Z,29.77
2023-02-15T23:28:50.446Z,28.33
2023-02-15T23:31:21.857Z,29.10
2023-02-15T23:33:48.986Z,27.90
2023-02-15T23:36:28.091Z,27.00
2023-02-15T23:38:56.609Z,26.03
2023-02-15T23:41:27.450Z,29.53
2023-02-15T23:43:58.137Z,25.77
2023-02-15T23:46:26.759Z,27.60
2023-02-15T23:48:54.801Z,26.77
2023-02-15T23:51:27.345Z,25.73
2023-02-15T23:53:53.987Z,28.90
2023-02-15T23:56:20.673Z,29.30
2023-02-15T23:58:48.141Z,31.90
